createdAt,value
2018-12-25T00:00:19.724Z,8.51
2018-12-25T00:00:45.830Z,8.48
2018-12-25T00:01:11.935Z,8.45
2018-12-25T00:01:38.039Z,8.45
2018-12-25T00:02:04.146Z,8.42
2018-12-25T00:02:30.255Z,8.45
2018-12-25T00:02:56.362Z,8.45
2018-12-25T00:03:22.468Z,8.34
2018-12-25T00:03:48.567Z,8.44
2018-12-25T00:04:14.677Z,8.38
2018-12-25T00:04:40.784Z,8.45
2018-12-25T00:05:06.896Z,8.38
2018-12-25T00:05:33.001Z,8.36
2018-12-25T00:05:59.109Z,8.34
2018-12-25T00:06:25.207Z,8.34
2018-12-25T00:06:52.309Z,8.37
2018-12-25T00:07:18.409Z,8.41
2018-12-25T00:07:44.520Z,8.44
2018-12-25T00:08:10.649Z,8.49
2018-12-25T00:08:36.760Z,8.44
2018-12-25T00:09:02.868Z,8.45
2018-12-25T00:09:28.972Z,8.41
2018-12-25T00:09:55.086Z,8.37
2018-12-25T00:10:21.188Z,8.38
2018-12-25T00:10:47.305Z,8.41
2018-12-25T00:11:13.408Z,8.45
2018-12-25T00:11:39.512Z,8.44
2018-12-25T00:12:05.618Z,8.38
2018-12-25T00:12:31.724Z,8.38
2018-12-25T00:12:57.828Z,8.34
2018-12-25T00:13:23.934Z,8.31
2018-12-25T00:13:50.031Z,8.33
2018-12-25T00:14:16.163Z,8.31
2018-12-25T00:14:42.294Z,8.33
2018-12-25T00:15:08.399Z,8.41
2018-12-25T00:15:34.538Z,8.3
2018-12-25T00:16:00.643Z,8.3
2018-12-25T00:16:26.756Z,8.3
2018-12-25T00:16:52.892Z,8.31
2018-12-25T00:17:18.998Z,8.3
2018-12-25T00:17:45.105Z,8.34
2018-12-25T00:18:11.210Z,8.36
2018-12-25T00:18:37.305Z,8.36
2018-12-25T00:19:06.162Z,8.33
2018-12-25T00:19:30.592Z,8.36
2018-12-25T00:19:56.645Z,8.3
2018-12-25T00:20:22.749Z,8.3
2018-12-25T00:20:48.867Z,8.3
2018-12-25T00:21:14.966Z,8.36
2018-12-25T00:21:41.092Z,8.31
2018-12-25T00:22:07.204Z,8.38
2018-12-25T00:22:33.308Z,8.3
2018-12-25T00:22:59.453Z,8.3
2018-12-25T00:23:25.587Z,8.34
2018-12-25T00:23:51.694Z,8.28
2018-12-25T00:24:17.794Z,8.31
2018-12-25T00:24:43.901Z,8.33
2018-12-25T00:25:10.007Z,8.28
2018-12-25T00:25:36.115Z,8.28
2018-12-25T00:26:02.225Z,8.3
2018-12-25T00:26:28.328Z,8.18
2018-12-25T00:26:54.443Z,8.28
2018-12-25T00:27:20.545Z,8.26
2018-12-25T00:27:46.648Z,8.18
2018-12-25T00:28:12.758Z,8.19
2018-12-25T00:28:38.863Z,8.19
2018-12-25T00:29:04.996Z,8.18
2018-12-25T00:29:31.108Z,8.2
2018-12-25T00:29:57.233Z,8.16
2018-12-25T00:30:23.347Z,8.18
2018-12-25T00:30:49.455Z,8.19
2018-12-25T00:31:15.560Z,8.15
2018-12-25T00:31:41.664Z,8.23
2018-12-25T00:32:07.768Z,8.15
2018-12-25T00:32:33.875Z,8.23
2018-12-25T00:32:59.975Z,8.2
2018-12-25T00:33:26.116Z,8.16
2018-12-25T00:33:52.219Z,8.13
2018-12-25T00:34:18.374Z,8.24
2018-12-25T00:34:44.483Z,8.19
2018-12-25T00:35:10.661Z,8.19
2018-12-25T00:35:36.765Z,8.16
2018-12-25T00:36:02.868Z,8.16
2018-12-25T00:36:28.978Z,8.16
2018-12-25T00:36:55.111Z,8.15
2018-12-25T00:37:21.271Z,8.1
2018-12-25T00:37:47.421Z,8.12
2018-12-25T00:38:13.518Z,8.13
2018-12-25T00:38:39.628Z,8.08
2018-12-25T00:39:05.733Z,8.1
2018-12-25T00:39:31.838Z,8.03
2018-12-25T00:39:57.951Z,8.03
2018-12-25T00:40:24.077Z,8.12
2018-12-25T00:40:50.179Z,8.12
2018-12-25T00:41:16.281Z,8.1
2018-12-25T00:41:42.385Z,8.12
2018-12-25T00:42:08.492Z,8.1
2018-12-25T00:42:34.599Z,8.1
2018-12-25T00:43:00.703Z,8.09
2018-12-25T00:43:26.812Z,8.16
2018-12-25T00:43:52.945Z,8.12
2018-12-25T00:44:19.056Z,8.12
2018-12-25T00:44:45.155Z,8.1
2018-12-25T00:45:11.262Z,8.18
2018-12-25T00:45:38.360Z,8.13
2018-12-25T00:46:04.498Z,8.13
2018-12-25T00:46:30.598Z,8.13
2018-12-25T00:46:56.705Z,8.16
2018-12-25T00:47:22.807Z,8.15
2018-12-25T00:47:48.914Z,8.13
2018-12-25T00:48:15.026Z,8.2
2018-12-25T00:48:41.131Z,8.15
2018-12-25T00:49:14.529Z,8.1
2018-12-25T00:49:34.356Z,8.1
2018-12-25T00:50:00.458Z,8.15
2018-12-25T00:50:26.562Z,8.12
2018-12-25T00:50:52.674Z,8.12
2018-12-25T00:51:18.777Z,8.08
2018-12-25T00:51:44.958Z,8.15
2018-12-25T00:52:11.083Z,8.09
2018-12-25T00:52:37.211Z,8.12
2018-12-25T00:53:03.316Z,8.19
2018-12-25T00:53:29.429Z,8.13
2018-12-25T00:53:55.565Z,8.18
2018-12-25T00:54:21.671Z,8.16
2018-12-25T00:54:47.777Z,8.16
2018-12-25T00:55:13.883Z,8.12
2018-12-25T00:55:39.982Z,8.08
2018-12-25T00:56:06.089Z,8.16
2018-12-25T00:56:32.194Z,8.15
2018-12-25T00:56:58.297Z,8.09
2018-12-25T00:57:24.431Z,8.16
2018-12-25T00:57:50.546Z,8.1
2018-12-25T00:58:16.654Z,8.15
2018-12-25T00:58:42.784Z,8.12
2018-12-25T00:59:08.882Z,8.13
2018-12-25T00:59:34.986Z,8.15
2018-12-25T01:00:01.097Z,8.1
2018-12-25T01:00:27.196Z,8.13
2018-12-25T01:00:53.339Z,8.1
2018-12-25T01:01:19.443Z,8.03
2018-12-25T01:01:45.552Z,8.08
2018-12-25T01:02:12.643Z,8.05
2018-12-25T01:02:38.748Z,8.12
2018-12-25T01:03:04.851Z,8.1
2018-12-25T01:03:30.963Z,8.08
2018-12-25T01:03:57.069Z,8.12
2018-12-25T01:04:23.181Z,8.1
2018-12-25T01:04:49.274Z,8.1
2018-12-25T01:05:15.384Z,8.09
2018-12-25T01:05:41.490Z,8.09
2018-12-25T01:06:07.600Z,8.18
2018-12-25T01:06:33.751Z,8.16
2018-12-25T01:06:59.973Z,8.1
2018-12-25T01:07:26.025Z,8.1
2018-12-25T01:07:52.125Z,8.06
2018-12-25T01:08:18.235Z,8.12
2018-12-25T01:08:44.344Z,8.12
2018-12-25T01:09:10.444Z,8.09
2018-12-25T01:09:36.546Z,8.12
2018-12-25T01:10:02.660Z,8.18
2018-12-25T01:10:28.790Z,8.15
2018-12-25T01:10:54.890Z,8.09
2018-12-25T01:11:20.987Z,8.1
2018-12-25T01:11:47.098Z,8.16
2018-12-25T01:12:13.202Z,8.06
2018-12-25T01:12:39.304Z,8.19
2018-12-25T01:13:05.415Z,8.12
2018-12-25T01:13:31.513Z,8.09
2018-12-25T01:13:57.625Z,8.15
2018-12-25T01:14:23.722Z,8.13
2018-12-25T01:14:49.826Z,8.03
2018-12-25T01:15:15.982Z,8.09
2018-12-25T01:15:42.086Z,8.1
2018-12-25T01:16:08.190Z,8.09
2018-12-25T01:16:34.299Z,8.01
2018-12-25T01:17:00.402Z,8.05
2018-12-25T01:17:26.509Z,8.08
2018-12-25T01:17:52.612Z,8.1
2018-12-25T01:18:18.725Z,8.08
2018-12-25T01:18:44.829Z,8.08
2018-12-25T01:19:10.932Z,8.09
2018-12-25T01:19:39.020Z,8.08
2018-12-25T01:20:05.139Z,8.06
2018-12-25T01:20:31.238Z,8.13
2018-12-25T01:20:57.343Z,8.06
2018-12-25T01:21:23.446Z,8.13
2018-12-25T01:21:49.544Z,8
2018-12-25T01:22:15.652Z,8.05
2018-12-25T01:22:41.755Z,8.08
2018-12-25T01:23:07.861Z,8.09
2018-12-25T01:23:33.965Z,8.09
2018-12-25T01:24:00.076Z,8.06
2018-12-25T01:24:26.176Z,8.1
2018-12-25T01:24:52.311Z,8.13
2018-12-25T01:25:18.413Z,8.12
2018-12-25T01:25:44.516Z,8.12
2018-12-25T01:26:10.628Z,8.15
2018-12-25T01:26:36.757Z,8.12
2018-12-25T01:27:02.854Z,8.09
2018-12-25T01:27:28.992Z,8.19
2018-12-25T01:27:55.094Z,8.08
2018-12-25T01:28:21.204Z,8.16
2018-12-25T01:28:47.311Z,8.08
2018-12-25T01:29:13.420Z,8.09
2018-12-25T01:29:39.521Z,8.16
2018-12-25T01:30:05.624Z,8.16
2018-12-25T01:30:31.723Z,8.16
2018-12-25T01:30:57.833Z,8.15
2018-12-25T01:31:23.930Z,8.18
2018-12-25T01:31:50.043Z,8.2
2018-12-25T01:32:16.141Z,8.15
2018-12-25T01:32:42.251Z,8.18
2018-12-25T01:33:08.351Z,8.16
2018-12-25T01:33:34.458Z,8.2
2018-12-25T01:34:00.598Z,8.23
2018-12-25T01:34:26.736Z,8.3
2018-12-25T01:34:52.839Z,8.27
2018-12-25T01:35:18.967Z,8.31
2018-12-25T01:35:45.100Z,8.19
2018-12-25T01:36:11.204Z,8.16
2018-12-25T01:36:37.313Z,8.19
2018-12-25T01:37:03.419Z,8.12
2018-12-25T01:37:29.523Z,8.19
2018-12-25T01:37:55.632Z,8.16
2018-12-25T01:38:21.747Z,8.27
2018-12-25T01:38:47.849Z,8.27
2018-12-25T01:39:13.957Z,8.28
2018-12-25T01:39:40.079Z,8.3
2018-12-25T01:40:06.188Z,8.28
2018-12-25T01:40:32.349Z,8.28
2018-12-25T01:40:58.461Z,8.28
2018-12-25T01:41:24.565Z,8.31
2018-12-25T01:41:50.667Z,8.33
2018-12-25T01:42:16.781Z,8.33
2018-12-25T01:42:42.914Z,8.3
2018-12-25T01:43:09.047Z,8.28
2018-12-25T01:43:35.156Z,8.23
2018-12-25T01:44:01.286Z,8.26
2018-12-25T01:44:27.393Z,8.28
2018-12-25T01:44:53.496Z,8.24
2018-12-25T01:45:19.587Z,8.23
2018-12-25T01:45:45.698Z,8.19
2018-12-25T01:46:11.796Z,8.23
2018-12-25T01:46:37.914Z,8.24
2018-12-25T01:47:04.024Z,8.28
2018-12-25T01:47:30.159Z,8.31
2018-12-25T01:47:56.264Z,8.34
2018-12-25T01:48:22.370Z,8.3
2018-12-25T01:48:48.505Z,8.28
2018-12-25T01:49:14.601Z,8.28
2018-12-25T01:49:41.724Z,8.27
2018-12-25T01:50:07.830Z,8.24
2018-12-25T01:50:33.941Z,8.2
2018-12-25T01:51:00.049Z,8.18
2018-12-25T01:51:26.157Z,8.16
2018-12-25T01:51:52.284Z,8.13
2018-12-25T01:52:18.388Z,8.13
2018-12-25T01:52:44.487Z,8.13
2018-12-25T01:53:10.588Z,8.15
2018-12-25T01:53:36.692Z,8.13
2018-12-25T01:54:02.796Z,8.16
2018-12-25T01:54:28.897Z,8.16
2018-12-25T01:54:55.026Z,8.19
2018-12-25T01:55:21.136Z,8.15
2018-12-25T01:55:47.242Z,8.09
2018-12-25T01:56:13.347Z,8.1
2018-12-25T01:56:39.457Z,8.15
2018-12-25T01:57:05.558Z,8.09
2018-12-25T01:57:31.666Z,8.09
2018-12-25T01:57:57.773Z,8.12
2018-12-25T01:58:23.874Z,8.12
2018-12-25T01:58:49.982Z,8.09
2018-12-25T01:59:16.094Z,8.08
2018-12-25T01:59:42.195Z,8.13
2018-12-25T02:00:08.301Z,8.12
2018-12-25T02:00:34.402Z,8.06
2018-12-25T02:01:00.510Z,8.06
2018-12-25T02:01:26.619Z,8.06
2018-12-25T02:01:52.727Z,8
2018-12-25T02:02:18.830Z,8.09
2018-12-25T02:02:44.935Z,8.08
2018-12-25T02:03:11.038Z,8.06
2018-12-25T02:03:37.167Z,8.15
2018-12-25T02:04:03.276Z,8.09
2018-12-25T02:04:29.408Z,8.09
2018-12-25T02:04:55.520Z,8.09
2018-12-25T02:05:21.625Z,8.08
2018-12-25T02:05:47.764Z,8.09
2018-12-25T02:06:13.868Z,8.08
2018-12-25T02:06:39.972Z,8.09
2018-12-25T02:07:06.075Z,8.1
2018-12-25T02:07:32.180Z,8.15
2018-12-25T02:07:58.320Z,8.1
2018-12-25T02:08:24.429Z,8.09
2018-12-25T02:08:50.566Z,8.09
2018-12-25T02:09:16.674Z,8.05
2018-12-25T02:09:42.773Z,8.06
2018-12-25T02:10:08.882Z,8.1
2018-12-25T02:10:34.990Z,8.05
2018-12-25T02:11:02.056Z,7.98
2018-12-25T02:11:28.247Z,8
2018-12-25T02:11:54.349Z,7.95
2018-12-25T02:12:20.476Z,7.98
2018-12-25T02:12:46.578Z,8.03
2018-12-25T02:13:12.708Z,7.95
2018-12-25T02:13:38.814Z,7.95
2018-12-25T02:14:04.921Z,7.93
2018-12-25T02:14:31.027Z,8.01
2018-12-25T02:14:57.138Z,7.98
2018-12-25T02:15:23.245Z,7.98
2018-12-25T02:15:49.347Z,8
2018-12-25T02:16:15.458Z,8.05
2018-12-25T02:16:41.587Z,8.01
2018-12-25T02:17:07.692Z,8.03
2018-12-25T02:17:33.799Z,8.05
2018-12-25T02:17:59.985Z,8.01
2018-12-25T02:18:26.099Z,7.98
2018-12-25T02:18:52.198Z,8.05
2018-12-25T02:19:18.310Z,8.05
2018-12-25T02:19:45.425Z,7.97
2018-12-25T02:20:11.538Z,8.03
2018-12-25T02:20:37.636Z,8.09
2018-12-25T02:21:03.783Z,8.06
2018-12-25T02:21:29.911Z,8.08
2018-12-25T02:21:56.015Z,8.1
2018-12-25T02:22:22.122Z,8.1
2018-12-25T02:22:48.260Z,8.1
2018-12-25T02:23:14.356Z,8.1
2018-12-25T02:23:40.466Z,8.1
2018-12-25T02:24:06.569Z,8.03
2018-12-25T02:24:32.679Z,8.08
2018-12-25T02:24:58.782Z,7.98
2018-12-25T02:25:24.890Z,8.01
2018-12-25T02:25:50.997Z,7.97
2018-12-25T02:26:17.093Z,8
2018-12-25T02:26:43.199Z,8.09
2018-12-25T02:27:09.364Z,8.13
2018-12-25T02:27:35.474Z,8.05
2018-12-25T02:28:01.573Z,8.1
2018-12-25T02:28:27.682Z,8.12
2018-12-25T02:28:53.793Z,8.09
2018-12-25T02:29:19.893Z,8.1
2018-12-25T02:29:45.992Z,8.03
2018-12-25T02:30:12.161Z,8.05
2018-12-25T02:30:38.294Z,8.1
2018-12-25T02:31:04.392Z,8.06
2018-12-25T02:31:30.497Z,7.98
2018-12-25T02:31:56.606Z,8.09
2018-12-25T02:32:22.766Z,8
2018-12-25T02:32:48.873Z,7.98
2018-12-25T02:33:14.981Z,8
2018-12-25T02:33:41.140Z,7.95
2018-12-25T02:34:07.245Z,7.93
2018-12-25T02:34:33.373Z,7.95
2018-12-25T02:34:59.475Z,7.97
2018-12-25T02:35:25.582Z,7.91
2018-12-25T02:35:51.751Z,7.93
2018-12-25T02:36:17.879Z,7.94
2018-12-25T02:36:44.039Z,8.01
2018-12-25T02:37:10.171Z,8
2018-12-25T02:37:36.279Z,7.79
2018-12-25T02:38:02.388Z,7.79
2018-12-25T02:38:28.492Z,7.83
2018-12-25T02:38:54.629Z,7.85
2018-12-25T02:39:20.730Z,7.8
2018-12-25T02:39:46.833Z,7.69
2018-12-25T02:40:13.029Z,7.69
2018-12-25T02:40:39.159Z,7.82
2018-12-25T02:41:05.323Z,7.79
2018-12-25T02:41:31.454Z,7.8
2018-12-25T02:41:57.621Z,7.83
2018-12-25T02:42:23.724Z,7.77
2018-12-25T02:42:49.826Z,7.82
2018-12-25T02:43:15.933Z,7.69
2018-12-25T02:43:42.067Z,7.85
2018-12-25T02:44:08.168Z,7.75
2018-12-25T02:44:34.286Z,7.77
2018-12-25T02:45:00.418Z,7.8
2018-12-25T02:45:26.498Z,7.82
2018-12-25T02:45:52.604Z,7.9
2018-12-25T02:46:18.700Z,7.83
2018-12-25T02:46:44.813Z,7.85
2018-12-25T02:47:10.943Z,7.87
2018-12-25T02:47:37.070Z,7.85
2018-12-25T02:48:03.206Z,7.8
2018-12-25T02:48:29.308Z,7.77
2018-12-25T02:48:55.525Z,7.77
2018-12-25T02:49:22.627Z,7.79
2018-12-25T02:49:50.290Z,7.83
2018-12-25T02:50:15.851Z,7.85
2018-12-25T02:50:41.950Z,7.83
2018-12-25T02:51:08.057Z,7.8
2018-12-25T02:51:34.167Z,7.91
2018-12-25T02:52:00.329Z,7.91
2018-12-25T02:52:26.436Z,7.87
2018-12-25T02:52:52.541Z,7.8
2018-12-25T02:53:18.651Z,7.8
2018-12-25T02:53:44.808Z,7.83
2018-12-25T02:54:10.974Z,7.91
2018-12-25T02:54:37.097Z,7.95
2018-12-25T02:55:03.201Z,7.83
2018-12-25T02:55:29.359Z,7.83
2018-12-25T02:55:55.478Z,7.94
2018-12-25T02:56:21.632Z,7.94
2018-12-25T02:56:47.740Z,7.94
2018-12-25T02:57:13.864Z,7.93
2018-12-25T02:57:39.968Z,7.95
2018-12-25T02:58:06.103Z,7.94
2018-12-25T02:58:32.263Z,7.91
2018-12-25T02:58:58.394Z,7.82
2018-12-25T02:59:24.533Z,7.85
2018-12-25T02:59:50.669Z,7.83
2018-12-25T03:00:16.767Z,7.72
2018-12-25T03:00:42.905Z,7.76
2018-12-25T03:01:09.065Z,7.7
2018-12-25T03:01:35.198Z,7.69
2018-12-25T03:02:01.306Z,7.77
2018-12-25T03:02:27.411Z,7.73
2018-12-25T03:02:53.609Z,7.76
2018-12-25T03:03:19.709Z,7.85
2018-12-25T03:03:45.818Z,7.85
2018-12-25T03:04:11.931Z,7.83
2018-12-25T03:04:38.035Z,7.82
2018-12-25T03:05:04.141Z,7.79
2018-12-25T03:05:30.365Z,7.76
2018-12-25T03:05:56.419Z,7.83
2018-12-25T03:06:22.524Z,7.87
2018-12-25T03:06:48.629Z,7.82
2018-12-25T03:07:14.728Z,7.79
2018-12-25T03:07:40.838Z,7.76
2018-12-25T03:08:06.966Z,7.79
2018-12-25T03:08:33.125Z,7.7
2018-12-25T03:08:59.249Z,7.82
2018-12-25T03:09:25.353Z,7.82
2018-12-25T03:09:51.460Z,7.83
2018-12-25T03:10:17.594Z,7.88
2018-12-25T03:10:43.735Z,7.87
2018-12-25T03:11:09.868Z,7.87
2018-12-25T03:11:36.002Z,7.82
2018-12-25T03:12:02.115Z,7.79
2018-12-25T03:12:28.296Z,7.77
2018-12-25T03:12:54.475Z,7.67
2018-12-25T03:13:20.631Z,7.69
2018-12-25T03:13:46.792Z,7.77
2018-12-25T03:14:12.930Z,7.67
2018-12-25T03:14:39.060Z,7.72
2018-12-25T03:15:05.179Z,7.67
2018-12-25T03:15:31.283Z,7.73
2018-12-25T03:15:57.397Z,7.7
2018-12-25T03:16:23.531Z,7.69
2018-12-25T03:16:49.629Z,7.67
2018-12-25T03:17:15.823Z,7.66
2018-12-25T03:17:41.947Z,7.63
2018-12-25T03:18:08.052Z,7.66
2018-12-25T03:18:34.159Z,7.66
2018-12-25T03:19:00.262Z,7.69
2018-12-25T03:19:26.365Z,7.67
2018-12-25T03:19:59.774Z,7.6
2018-12-25T03:20:20.558Z,7.66
2018-12-25T03:20:46.662Z,7.58
2018-12-25T03:21:12.804Z,7.61
2018-12-25T03:21:38.986Z,7.61
2018-12-25T03:22:05.123Z,7.7
2018-12-25T03:22:31.254Z,7.7
2018-12-25T03:22:57.396Z,7.66
2018-12-25T03:23:23.564Z,7.72
2018-12-25T03:23:49.699Z,7.61
2018-12-25T03:24:15.853Z,7.72
2018-12-25T03:24:41.996Z,7.72
2018-12-25T03:25:08.130Z,7.69
2018-12-25T03:25:34.268Z,7.69
2018-12-25T03:26:00.402Z,7.7
2018-12-25T03:26:26.507Z,7.73
2018-12-25T03:26:52.717Z,7.69
2018-12-25T03:27:18.824Z,7.72
2018-12-25T03:27:44.928Z,7.72
2018-12-25T03:28:11.064Z,7.69
2018-12-25T03:28:37.178Z,7.63
2018-12-25T03:29:03.276Z,7.67
2018-12-25T03:29:29.384Z,7.57
2018-12-25T03:29:55.513Z,7.67
2018-12-25T03:30:21.674Z,7.67
2018-12-25T03:30:47.804Z,7.69
2018-12-25T03:31:13.994Z,7.69
2018-12-25T03:31:40.151Z,7.61
2018-12-25T03:32:06.345Z,7.69
2018-12-25T03:32:32.513Z,7.61
2018-12-25T03:32:58.656Z,7.6
2018-12-25T03:33:24.836Z,7.6
2018-12-25T03:33:50.967Z,7.67
2018-12-25T03:34:17.071Z,7.6
2018-12-25T03:34:43.178Z,7.72
2018-12-25T03:35:09.286Z,7.66
2018-12-25T03:35:35.393Z,7.67
2018-12-25T03:36:01.529Z,7.7
2018-12-25T03:36:27.636Z,7.67
2018-12-25T03:36:53.736Z,7.69
2018-12-25T03:37:19.846Z,7.7
2018-12-25T03:37:45.976Z,7.63
2018-12-25T03:38:12.192Z,7.72
2018-12-25T03:38:38.298Z,7.76
2018-12-25T03:39:04.469Z,7.72
2018-12-25T03:39:30.608Z,7.72
2018-12-25T03:39:56.712Z,7.75
2018-12-25T03:40:22.861Z,7.67
2018-12-25T03:40:48.996Z,7.7
2018-12-25T03:41:15.108Z,7.67
2018-12-25T03:41:41.214Z,7.67
2018-12-25T03:42:07.344Z,7.72
2018-12-25T03:42:33.478Z,7.7
2018-12-25T03:42:59.585Z,7.76
2018-12-25T03:43:25.692Z,7.7
2018-12-25T03:43:51.800Z,7.63
2018-12-25T03:44:17.904Z,7.76
2018-12-25T03:44:44.010Z,7.73
2018-12-25T03:45:10.146Z,7.67
2018-12-25T03:45:36.237Z,7.76
2018-12-25T03:46:02.359Z,7.73
2018-12-25T03:46:28.485Z,7.73
2018-12-25T03:46:54.617Z,7.69
2018-12-25T03:47:20.749Z,7.72
2018-12-25T03:47:46.890Z,7.8
2018-12-25T03:48:12.997Z,7.83
2018-12-25T03:48:39.185Z,7.77
2018-12-25T03:49:05.327Z,7.82
2018-12-25T03:49:31.456Z,7.79
2018-12-25T03:49:57.591Z,7.67
2018-12-25T03:50:24.739Z,7.7
2018-12-25T03:50:50.884Z,7.69
2018-12-25T03:51:16.985Z,7.67
2018-12-25T03:51:43.133Z,7.8
2018-12-25T03:52:09.281Z,7.7
2018-12-25T03:52:35.381Z,7.7
2018-12-25T03:53:01.487Z,7.72
2018-12-25T03:53:27.593Z,7.73
2018-12-25T03:53:53.724Z,7.67
2018-12-25T03:54:19.829Z,7.69
2018-12-25T03:54:45.928Z,7.66
2018-12-25T03:55:12.059Z,7.73
2018-12-25T03:55:38.290Z,7.66
2018-12-25T03:56:04.381Z,7.72
2018-12-25T03:56:30.512Z,7.67
2018-12-25T03:56:56.620Z,7.67
2018-12-25T03:57:22.749Z,7.76
2018-12-25T03:57:48.857Z,7.69
2018-12-25T03:58:14.987Z,7.69
2018-12-25T03:58:41.106Z,7.79
2018-12-25T03:59:07.225Z,7.67
2018-12-25T03:59:33.333Z,7.72
2018-12-25T03:59:59.439Z,7.72
2018-12-25T04:00:25.550Z,7.73
2018-12-25T04:00:51.651Z,7.75
2018-12-25T04:01:17.759Z,7.72
2018-12-25T04:01:43.893Z,7.7
2018-12-25T04:02:10.145Z,7.7
2018-12-25T04:02:36.209Z,7.63
2018-12-25T04:03:02.345Z,7.67
2018-12-25T04:03:28.446Z,7.67
2018-12-25T04:03:54.549Z,7.72
2018-12-25T04:04:20.690Z,7.67
2018-12-25T04:04:46.874Z,7.7
2018-12-25T04:05:13.006Z,7.7
2018-12-25T04:05:39.105Z,7.72
2018-12-25T04:06:05.246Z,7.69
2018-12-25T04:06:31.410Z,7.67
2018-12-25T04:06:57.513Z,7.72
2018-12-25T04:07:23.644Z,7.7
2018-12-25T04:07:49.796Z,7.69
2018-12-25T04:08:15.989Z,7.75
2018-12-25T04:08:42.061Z,7.76
2018-12-25T04:09:08.208Z,7.73
2018-12-25T04:09:34.363Z,7.7
2018-12-25T04:10:00.465Z,7.73
2018-12-25T04:10:26.572Z,7.76
2018-12-25T04:10:52.683Z,7.72
2018-12-25T04:11:18.785Z,7.76
2018-12-25T04:11:44.917Z,7.73
2018-12-25T04:12:11.018Z,7.75
2018-12-25T04:12:37.125Z,7.63
2018-12-25T04:13:03.231Z,7.66
2018-12-25T04:13:29.331Z,7.7
2018-12-25T04:13:55.466Z,7.57
2018-12-25T04:14:21.601Z,7.67
2018-12-25T04:14:47.758Z,7.67
2018-12-25T04:15:13.893Z,7.67
2018-12-25T04:15:39.998Z,7.67
2018-12-25T04:16:06.119Z,7.73
2018-12-25T04:16:32.291Z,7.73
2018-12-25T04:16:58.455Z,7.73
2018-12-25T04:17:24.581Z,7.72
2018-12-25T04:17:50.687Z,7.7
2018-12-25T04:18:16.799Z,7.69
2018-12-25T04:18:42.930Z,7.7
2018-12-25T04:19:09.039Z,7.69
2018-12-25T04:19:35.168Z,7.8
2018-12-25T04:20:01.466Z,7.83
2018-12-25T04:20:29.549Z,7.8
2018-12-25T04:20:55.677Z,7.77
2018-12-25T04:21:21.810Z,7.67
2018-12-25T04:21:47.915Z,7.67
2018-12-25T04:22:14.053Z,7.77
2018-12-25T04:22:40.153Z,7.7
2018-12-25T04:23:06.262Z,7.67
2018-12-25T04:23:32.370Z,7.67
2018-12-25T04:23:58.471Z,7.67
2018-12-25T04:24:24.581Z,7.75
2018-12-25T04:24:50.714Z,7.69
2018-12-25T04:25:16.821Z,7.72
2018-12-25T04:25:43.036Z,7.67
2018-12-25T04:26:09.109Z,7.7
2018-12-25T04:26:35.226Z,7.7
2018-12-25T04:27:01.333Z,7.7
2018-12-25T04:27:27.440Z,7.72
2018-12-25T04:27:53.573Z,7.7
2018-12-25T04:28:19.674Z,7.75
2018-12-25T04:28:45.783Z,7.72
2018-12-25T04:29:11.923Z,7.61
2018-12-25T04:29:38.027Z,7.72
2018-12-25T04:30:04.130Z,7.61
2018-12-25T04:30:30.222Z,7.63
2018-12-25T04:30:56.329Z,7.73
2018-12-25T04:31:22.433Z,7.73
2018-12-25T04:31:48.542Z,7.69
2018-12-25T04:32:14.640Z,7.7
2018-12-25T04:32:40.742Z,7.66
2018-12-25T04:33:06.877Z,7.69
2018-12-25T04:33:33.010Z,7.7
2018-12-25T04:33:59.113Z,7.67
2018-12-25T04:34:25.222Z,7.7
2018-12-25T04:34:51.328Z,7.69
2018-12-25T04:35:17.484Z,7.72
2018-12-25T04:35:43.586Z,7.69
2018-12-25T04:36:09.716Z,7.72
2018-12-25T04:36:35.823Z,7.69
2018-12-25T04:37:01.930Z,7.72
2018-12-25T04:37:28.038Z,7.69
2018-12-25T04:37:54.162Z,7.63
2018-12-25T04:38:20.303Z,7.76
2018-12-25T04:38:46.434Z,7.72
2018-12-25T04:39:12.581Z,7.72
2018-12-25T04:39:38.714Z,7.66
2018-12-25T04:40:04.857Z,7.66
2018-12-25T04:40:30.989Z,7.63
2018-12-25T04:40:57.129Z,7.61
2018-12-25T04:41:23.295Z,7.61
2018-12-25T04:41:49.430Z,7.61
2018-12-25T04:42:15.565Z,7.6
2018-12-25T04:42:41.668Z,7.61
2018-12-25T04:43:07.773Z,7.6
2018-12-25T04:43:33.884Z,7.6
2018-12-25T04:44:00.018Z,7.66
2018-12-25T04:44:26.122Z,7.58
2018-12-25T04:44:52.227Z,7.67
2018-12-25T04:45:18.343Z,7.61
2018-12-25T04:45:44.461Z,7.69
2018-12-25T04:46:10.547Z,7.66
2018-12-25T04:46:36.659Z,7.66
2018-12-25T04:47:02.766Z,7.63
2018-12-25T04:47:28.934Z,7.67
2018-12-25T04:47:55.039Z,7.58
2018-12-25T04:48:21.138Z,7.61
2018-12-25T04:48:47.247Z,7.66
2018-12-25T04:49:13.376Z,7.58
2018-12-25T04:49:39.513Z,7.53
2018-12-25T04:50:05.619Z,7.56
2018-12-25T04:50:33.704Z,7.58
2018-12-25T04:50:59.805Z,7.67
2018-12-25T04:51:25.941Z,7.61
2018-12-25T04:51:52.105Z,7.57
2018-12-25T04:52:18.207Z,7.61
2018-12-25T04:52:44.323Z,7.56
2018-12-25T04:53:10.425Z,7.5
2018-12-25T04:53:36.560Z,7.54
2018-12-25T04:54:02.709Z,7.47
2018-12-25T04:54:28.802Z,7.56
2018-12-25T04:54:54.910Z,7.58
2018-12-25T04:55:21.096Z,7.63
2018-12-25T04:55:47.192Z,7.57
2018-12-25T04:56:13.302Z,7.54
2018-12-25T04:56:39.405Z,7.51
2018-12-25T04:57:05.539Z,7.61
2018-12-25T04:57:31.667Z,7.57
2018-12-25T04:57:57.775Z,7.56
2018-12-25T04:58:23.884Z,7.63
2018-12-25T04:58:49.985Z,7.6
2018-12-25T04:59:16.092Z,7.57
2018-12-25T04:59:42.198Z,7.53
2018-12-25T05:00:08.305Z,7.5
2018-12-25T05:00:34.405Z,7.48
2018-12-25T05:01:00.542Z,7.43
2018-12-25T05:01:26.647Z,7.43
2018-12-25T05:01:52.758Z,7.53
2018-12-25T05:02:18.893Z,7.48
2018-12-25T05:02:44.996Z,7.42
2018-12-25T05:03:11.097Z,7.45
2018-12-25T05:03:37.211Z,7.53
2018-12-25T05:04:03.364Z,7.48
2018-12-25T05:04:29.495Z,7.53
2018-12-25T05:04:55.597Z,7.5
2018-12-25T05:05:21.713Z,7.53
2018-12-25T05:05:47.805Z,7.48
2018-12-25T05:06:13.942Z,7.5
2018-12-25T05:06:40.077Z,7.45
2018-12-25T05:07:06.176Z,7.58
2018-12-25T05:07:32.290Z,7.53
2018-12-25T05:07:58.397Z,7.43
2018-12-25T05:08:24.506Z,7.43
2018-12-25T05:08:50.609Z,7.47
2018-12-25T05:09:16.710Z,7.5
2018-12-25T05:09:42.840Z,7.42
2018-12-25T05:10:08.973Z,7.47
2018-12-25T05:10:35.081Z,7.45
2018-12-25T05:11:01.197Z,7.38
2018-12-25T05:11:27.304Z,7.4
2018-12-25T05:11:53.442Z,7.45
2018-12-25T05:12:19.548Z,7.43
2018-12-25T05:12:45.691Z,7.5
2018-12-25T05:13:11.790Z,7.43
2018-12-25T05:13:37.904Z,7.48
2018-12-25T05:14:04.005Z,7.43
2018-12-25T05:14:30.114Z,7.51
2018-12-25T05:14:56.213Z,7.53
2018-12-25T05:15:22.342Z,7.5
2018-12-25T05:15:48.480Z,7.5
2018-12-25T05:16:14.582Z,7.5
2018-12-25T05:16:40.688Z,7.48
2018-12-25T05:17:06.797Z,7.43
2018-12-25T05:17:32.923Z,7.51
2018-12-25T05:17:59.021Z,7.53
2018-12-25T05:18:25.159Z,7.56
2018-12-25T05:18:51.261Z,7.53
2018-12-25T05:19:17.365Z,7.45
2018-12-25T05:19:43.466Z,7.5
2018-12-25T05:20:09.575Z,7.48
2018-12-25T05:20:37.918Z,7.48
2018-12-25T05:21:02.802Z,7.45
2018-12-25T05:21:28.899Z,7.48
2018-12-25T05:21:55.010Z,7.53
2018-12-25T05:22:21.115Z,7.51
2018-12-25T05:22:47.249Z,7.5
2018-12-25T05:23:13.355Z,7.43
2018-12-25T05:23:39.461Z,7.51
2018-12-25T05:24:05.561Z,7.43
2018-12-25T05:24:31.682Z,7.48
2018-12-25T05:24:57.809Z,7.57
2018-12-25T05:25:23.919Z,7.54
2018-12-25T05:25:50.021Z,7.53
2018-12-25T05:26:16.124Z,7.54
2018-12-25T05:26:42.232Z,7.54
2018-12-25T05:27:08.371Z,7.56
2018-12-25T05:27:34.514Z,7.56
2018-12-25T05:28:00.621Z,7.56
2018-12-25T05:28:26.724Z,7.56
2018-12-25T05:28:52.829Z,7.54
2018-12-25T05:29:18.962Z,7.56
2018-12-25T05:29:45.070Z,7.58
2018-12-25T05:30:11.748Z,7.53
2018-12-25T05:30:37.811Z,7.58
2018-12-25T05:31:03.911Z,7.66
2018-12-25T05:31:30.044Z,7.69
2018-12-25T05:31:56.147Z,7.69
2018-12-25T05:32:22.259Z,7.56
2018-12-25T05:32:48.387Z,7.7
2018-12-25T05:33:14.493Z,7.63
2018-12-25T05:33:40.629Z,7.6
2018-12-25T05:34:06.730Z,7.45
2018-12-25T05:34:32.896Z,7.5
2018-12-25T05:34:58.998Z,7.51
2018-12-25T05:35:25.112Z,7.48
2018-12-25T05:35:51.212Z,7.48
2018-12-25T05:36:17.344Z,7.56
2018-12-25T05:36:43.447Z,7.51
2018-12-25T05:37:09.546Z,7.5
2018-12-25T05:37:35.717Z,7.51
2018-12-25T05:38:01.826Z,7.4
2018-12-25T05:38:27.954Z,7.53
2018-12-25T05:38:54.047Z,7.48
2018-12-25T05:39:20.155Z,7.47
2018-12-25T05:39:46.258Z,7.45
2018-12-25T05:40:12.392Z,7.47
2018-12-25T05:40:38.521Z,7.43
2018-12-25T05:41:04.630Z,7.4
2018-12-25T05:41:30.733Z,7.39
2018-12-25T05:41:56.846Z,7.43
2018-12-25T05:42:23.003Z,7.42
2018-12-25T05:42:49.111Z,7.39
2018-12-25T05:43:15.206Z,7.4
2018-12-25T05:43:41.313Z,7.43
2018-12-25T05:44:07.447Z,7.43
2018-12-25T05:44:33.546Z,7.39
2018-12-25T05:44:59.650Z,7.43
2018-12-25T05:45:25.751Z,7.45
2018-12-25T05:45:51.856Z,7.47
2018-12-25T05:46:17.962Z,7.5
2018-12-25T05:46:44.067Z,7.42
2018-12-25T05:47:10.174Z,7.47
2018-12-25T05:47:36.281Z,7.43
2018-12-25T05:48:02.384Z,7.42
2018-12-25T05:48:28.517Z,7.56
2018-12-25T05:48:54.621Z,7.45
2018-12-25T05:49:20.732Z,7.42
2018-12-25T05:49:46.837Z,7.4
2018-12-25T05:50:12.937Z,7.51